Latest Coastal Weather Observations for Burnie Port

IDT60701

Issued at 3:32 pm EST Monday 29 August 2016 (issued every 10 minutes, with the page automatically refreshed every 10 minutes)

About coastal observations | Map of coastal stations | Coastal observations for TAS | Marine services | Other Formats
Station Details ID: 091344 Name: BURNIE NTC AWS Lat: -41.05 Lon: 145.91 Height: 0.0 m
Data from the previous 72 hours. | See also: Recent months for locations in Tasmania
Date/Time
EST
Temp
°C
Wind Pressure Rain since
9am
mm
Weather Cloud Vis
km
Sea
Height
m
Swell
Dir  Spd
kts
Gust
kts
hPa Trend Height
m
Period
s
Dir
29/03:30pm - NNE 2 3 1022.8 - - - - - - - - -
29/03:00pm - N 4 5 1022.9 - - - - - - - - -
29/02:30pm - NE 4 5 1022.8 - - - - - - - - -
29/02:00pm - ESE 2 3 1022.9 - - - - - - - - -
29/01:30pm - NE 2 3 1023.4 - - - - - - - - -
29/01:00pm - NNE 4 5 1023.7 - - - - - - - - -
29/12:30pm - NNE 6 7 1023.9 - - - - - - - - -
29/12:00pm - NE 5 8 1024.1 - - - - - - - - -
29/11:30am - ENE 4 7 1024.1 - - - - - - - - -
29/11:00am - ENE 3 5 1024.4 - - - - - - - - -
29/10:30am - E 4 6 1024.3 - - - - - - - - -
29/10:00am - E 3 4 1024.7 - - - - - - - - -
29/09:30am - ESE 3 4 1024.8 - - - - - - - - -
29/09:00am - S 1 2 1024.8 - - - - - - - - -
29/08:30am - SSW 4 5 1024.4 - - - - - - - - -
29/08:00am - SSW 4 6 1024.2 - - - - - - - - -
29/07:30am - SSW 4 5 1024.1 - - - - - - - - -
29/07:00am - SSW 5 6 1023.5 - - - - - - - - -
29/06:30am - SSW 4 6 1022.9 - - - - - - - - -
29/06:00am - SSW 6 8 1022.6 - - - - - - - - -
29/05:30am - SSW 5 7 1022.5 - - - - - - - - -
29/05:00am - SSW 7 11 1022.2 - - - - - - - - -
29/04:30am - WSW 4 5 1022.0 - - - - - - - - -
29/04:00am - NW 2 4 1021.8 - - - - - - - - -
29/03:30am - SSW 5 9 1021.6 - - - - - - - - -
29/03:00am - SSW 5 8 1021.6 - - - - - - - - -
29/02:30am - SSW 7 9 1021.8 - - - - - - - - -
29/02:00am - SSW 9 12 1021.7 - - - - - - - - -
29/01:30am - SW 9 14 1021.6 - - - - - - - - -
29/01:00am - S 2 5 1021.8 - - - - - - - - -
29/12:30am - SW 7 10 1021.5 - - - - - - - - -
29/12:00am - SW 6 10 1021.3 - - - - - - - - -
 
Date/Time
EST
Temp
°C
Wind Pressure Rain since
9am
mm
Weather Cloud Vis
km
Sea
Height
m
Swell
Dir  Spd
kts
Gust
kts
hPa Trend Height
m
Period
s
Dir
28/11:30pm - WSW 5 9 1021.2 - - - - - - - - -
28/11:00pm - SW 6 9 1021.0 - - - - - - - - -
28/10:30pm - SW 8 11 1021.1 - - - - - - - - -
28/10:00pm - SW 11 17 1020.8 - - - - - - - - -
28/09:30pm - SW 11 15 1020.6 - - - - - - - - -
28/09:00pm - SW 8 13 1020.5 - - - - - - - - -
28/08:30pm - SW 7 13 1020.4 - - - - - - - - -
28/08:00pm - SW 8 12 1019.8 - - - - - - - - -
28/07:30pm - SW 6 9 1019.5 - - - - - - - - -
28/07:00pm - SSW 5 7 1019.2 - - - - - - - - -
28/06:30pm - SW 5 7 1019.2 - - - - - - - - -
28/06:00pm - SW 6 8 1018.6 - - - - - - - - -
28/05:30pm - SW 5 8 1018.1 - - - - - - - - -
28/05:00pm - SSW 7 11 1017.7 - - - - - - - - -
28/04:30pm - NW 4 6 1017.7 - - - - - - - - -
28/04:00pm - NNW 6 9 1017.6 - - - - - - - - -
28/03:30pm - NNW 7 9 1017.6 - - - - - - - - -
28/03:00pm - S 3 8 1017.4 - - - - - - - - -
28/02:30pm - SSW 5 9 1017.4 - - - - - - - - -
28/02:00pm - SSW 6 8 1017.4 - - - - - - - - -
28/01:30pm - SW 5 10 1017.6 - - - - - - - - -
28/01:00pm - WSW 6 11 1017.6 - - - - - - - - -
28/12:30pm - SW 8 15 1017.8 - - - - - - - - -
28/12:00pm - SW 10 17 1018.1 - - - - - - - - -
28/11:30am - SW 6 14 1018.2 - - - - - - - - -
28/11:00am - SW 8 15 1018.2 - - - - - - - - -
28/10:30am - WSW 7 15 1018.2 - - - - - - - - -
28/10:00am - W 7 13 1018.3 - - - - - - - - -
28/09:30am - W 3 7 1018.1 - - - - - - - - -
28/09:00am - W 4 8 1017.8 - - - - - - - - -
28/08:30am - SW 5 8 1017.5 - - - - - - - - -
28/08:00am - W 6 9 1017.0 - - - - - - - - -
28/07:30am - WNW 5 7 1016.5 - - - - - - - - -
28/07:00am - WNW 5 6 1015.6 - - - - - - - - -
28/06:30am - WNW 4 6 1015.1 - - - - - - - - -
28/06:00am - W 4 7 1014.5 - - - - - - - - -
28/05:30am - W 5 7 1013.9 - - - - - - - - -
28/05:00am - WSW 7 15 1013.2 - - - - - - - - -
28/04:30am - WSW 6 12 1012.6 - - - - - - - - -
28/04:00am - WSW 7 11 1011.8 - - - - - - - - -
28/03:30am - WSW 6 10 1011.3 - - - - - - - - -
28/03:00am - W 7 10 1010.8 - - - - - - - - -
28/02:30am - WNW 7 13 1010.3 - - - - - - - - -
28/02:00am - WNW 8 14 1010.2 - - - - - - - - -
28/01:30am - NW 13 16 1009.9 - - - - - - - - -
28/01:00am - WNW 8 12 1009.9 - - - - - - - - -
28/12:30am - WNW 11 22 1009.6 - - - - - - - - -
28/12:14am - WNW 15 27 1009.8 - - - - - - - - -
28/12:00am - W 13 22 1009.5 - - - - - - - - -
 
Date/Time
EST
Temp
°C
Wind Pressure Rain since
9am
mm
Weather Cloud Vis
km
Sea
Height
m
Swell
Dir  Spd
kts
Gust
kts
hPa Trend Height
m
Period
s
Dir
27/11:38pm - WNW 21 32 1009.3 - - - - - - - - -
27/11:30pm - NW 25 34 1009.2 - - - - - - - - -
27/11:21pm - NW 21 31 1009.2 - - - - - - - - -
27/11:00pm - NW 20 28 1009.8 - - - - - - - - -
27/10:41pm - NW 24 34 1010.2 - - - - - - - - -
27/10:30pm - NW 24 32 1010.2 - - - - - - - - -
27/10:06pm - NW 19 30 1010.8 - - - - - - - - -
27/10:00pm - NW 18 26 1011.0 - - - - - - - - -
27/09:43pm - WNW 15 25 1011.2 - - - - - - - - -
27/09:30pm - WNW 11 21 1011.4 - - - - - - - - -
27/09:00pm - WNW 10 19 1011.9 - - - - - - - - -
27/08:30pm - WNW 9 18 1012.1 - - - - - - - - -
27/08:00pm - WNW 12 26 1012.3 - - - - - - - - -
27/07:30pm - WNW 15 21 1012.3 - - - - - - - - -
27/07:08pm - NW 21 32 1012.1 - - - - - - - - -
27/07:00pm - NW 20 29 1012.1 - - - - - - - - -
27/06:52pm - NW 13 25 1012.1 - - - - - - - - -
27/06:30pm - WNW 7 11 1012.2 - - - - - - - - -
27/06:00pm - WNW 7 14 1012.4 - - - - - - - - -
27/05:30pm - WNW 9 17 1012.3 - - - - - - - - -
27/05:00pm - WNW 7 11 1012.2 - - - - - - - - -
27/04:30pm - WNW 13 19 1012.5 - - - - - - - - -
27/04:00pm - WNW 10 19 1012.5 - - - - - - - - -
27/03:30pm - WNW 17 25 1012.5 - - - - - - - - -
27/03:00pm - NW 22 28 1012.3 - - - - - - - - -
27/02:30pm - WNW 16 25 1012.4 - - - - - - - - -
27/02:00pm - WNW 16 28 1012.8 - - - - - - - - -
27/01:41pm - WNW 17 28 1012.7 - - - - - - - - -
27/01:30pm - NW 20 29 1012.9 - - - - - - - - -
27/01:13pm - WNW 17 31 1013.1 - - - - - - - - -
27/01:00pm - NW 16 20 1013.3 - - - - - - - - -
27/12:30pm - NW 16 20 1013.8 - - - - - - - - -
27/12:00pm - WNW 12 17 1014.3 - - - - - - - - -
27/11:30am - WNW 11 19 1014.7 - - - - - - - - -
27/11:00am - WNW 14 23 1015.1 - - - - - - - - -
27/10:30am - WNW 12 19 1015.2 - - - - - - - - -
27/10:00am - W 10 18 1015.7 - - - - - - - - -
27/09:30am - WNW 7 11 1015.7 - - - - - - - - -
27/09:00am - WNW 8 11 1015.6 - - - - - - - - -
27/08:30am - WNW 7 12 1015.8 - - - - - - - - -
27/08:00am - WNW 6 9 1015.8 - - - - - - - - -
27/07:30am - WNW 5 8 1015.8 - - - - - - - - -
27/07:00am - W 5 10 1015.6 - - - - - - - - -
27/06:30am - WNW 3 5 1015.7 - - - - - - - - -
27/06:00am - WNW 4 7 1015.6 - - - - - - - - -
27/05:30am - WNW 5 8 1015.6 - - - - - - - - -
27/05:00am - WNW 5 7 1015.6 - - - - - - - - -
27/04:30am - NW 3 5 1015.5 - - - - - - - - -
27/04:00am - WNW 2 4 1015.5 - - - - - - - - -
27/03:30am - WNW 3 5 1015.6 - - - - - - - - -
27/03:00am - W 5 7 1015.8 - - - - - - - - -
27/02:30am - WNW 4 6 1015.8 - - - - - - - - -
27/02:00am - W 5 8 1015.9 - - - - - - - - -

Other Formats:

Comma delimited format used in spreadsheet applications
http://www.bom.gov.au/fwo/IDT60701/IDT60701.95963.axf

JavaScript Object Notation format (JSON) in row-major order
http://www.bom.gov.au/fwo/IDT60701/IDT60701.95963.json